Time;durP1;ratioP1;P1;durP2;ratioP2;P2;SDS_P1;SDS_P2;PMS_P1;PMS_P2;Temp;Humidity;BMP_temperature;BMP_pressure;BME280_temperature;BME280_humidity;BME280_pressure;Samples;Min_cycle;Max_cycle;Signal;HPM_P1;HPM_P2
2023/06/20 00:01:51;;;;;;;27.65;20.85;;;17.10;99.90;;;;;;5056326;28;20132;-66
2023/06/20 00:04:17;;;;;;;29.17;21.00;;;17.10;99.90;;;;;;5056787;28;20045;-66
2023/06/20 00:06:42;;;;;;;30.92;22.52;;;17.10;99.90;;;;;;5039692;28;20032;-66
2023/06/20 00:09:08;;;;;;;29.67;23.17;;;17.10;99.90;;;;;;5074193;28;20044;-66
2023/06/20 00:11:33;;;;;;;24.70;20.08;;;17.10;99.90;;;;;;5056660;28;20051;-66
2023/06/20 00:13:59;;;;;;;27.75;19.73;;;17.10;99.90;;;;;;5055469;28;20052;-66
2023/06/20 00:16:25;;;;;;;31.35;21.27;;;17.20;99.90;;;;;;5074475;28;20043;-66
2023/06/20 00:18:53;;;;;;;27.80;20.40;;;17.10;99.90;;;;;;5056132;28;20032;-66
2023/06/20 00:21:21;;;;;;;27.02;20.05;;;17.20;99.90;;;;;;5073785;28;20048;-66
2023/06/20 00:23:47;;;;;;;28.38;21.75;;;17.20;99.90;;;;;;5074475;28;20083;-66
2023/06/20 00:26:13;;;;;;;28.60;21.15;;;17.20;99.90;;;;;;5056218;28;20044;-66
2023/06/20 00:28:38;;;;;;;28.05;20.48;;;17.10;99.90;;;;;;5055300;28;20405;-66
2023/06/20 00:31:04;;;;;;;27.38;21.08;;;17.10;99.90;;;;;;5074214;28;20118;-66
2023/06/20 00:33:30;;;;;;;29.80;22.08;;;17.10;99.90;;;;;;5074153;28;20040;-66
2023/06/20 00:35:56;;;;;;;32.78;21.63;;;17.10;99.90;;;;;;5073416;28;20539;-66
2023/06/20 00:38:21;;;;;;;29.65;20.52;;;17.10;99.90;;;;;;5074011;28;20030;-66
2023/06/20 00:40:49;;;;;;;27.83;21.15;;;17.00;99.90;;;;;;5074068;28;20032;-66
2023/06/20 00:43:15;;;;;;;30.42;21.40;;;17.00;99.90;;;;;;5073376;28;20436;-66
2023/06/20 00:45:40;;;;;;;27.02;20.30;;;17.00;99.90;;;;;;5055906;28;20040;-66
2023/06/20 00:48:07;;;;;;;27.75;20.67;;;17.10;99.90;;;;;;5037389;28;20036;-66
2023/06/20 00:50:34;;;;;;;31.80;21.65;;;17.10;99.90;;;;;;5035105;28;20049;-66
2023/06/20 00:53:05;;;;;;;28.35;20.52;;;17.00;99.90;;;;;;5053718;28;20044;-66
2023/06/20 00:55:33;;;;;;;27.75;20.83;;;17.00;99.90;;;;;;5053710;28;20044;-66
2023/06/20 00:58:03;;;;;;;25.10;19.95;;;17.00;99.90;;;;;;5034758;28;20052;-66
2023/06/20 01:00:32;;;;;;;25.88;20.25;;;17.00;99.90;;;;;;5019641;28;20402;-66
2023/06/20 01:03:01;;;;;;;28.45;21.13;;;17.00;99.90;;;;;;5053441;28;20045;-66
2023/06/20 01:05:29;;;;;;;30.50;20.98;;;17.00;99.90;;;;;;5053375;28;20045;-66
2023/06/20 01:08:18;;;;;;;28.95;21.55;;;17.00;99.90;;;;;;5053438;28;20041;-66
2023/06/20 01:11:07;;;;;;;24.88;20.40;;;17.00;99.90;;;;;;5038658;28;20379;-66
2023/06/20 01:13:51;;;;;;;24.42;19.83;;;17.00;99.90;;;;;;5035747;28;20080;-66
2023/06/20 01:16:38;;;;;;;29.00;21.92;;;17.00;99.90;;;;;;5053384;28;20076;-66
2023/06/20 01:19:14;;;;;;;23.83;20.10;;;17.00;99.90;;;;;;5052410;28;20080;-66
2023/06/20 01:21:46;;;;;;;25.30;18.35;;;17.00;99.90;;;;;;5053392;28;20037;-66
2023/06/20 01:24:19;;;;;;;32.65;20.40;;;17.00;99.90;;;;;;5052766;28;20045;-66
2023/06/20 01:27:10;;;;;;;24.55;19.92;;;17.00;99.90;;;;;;5052952;28;20037;-66
2023/06/20 01:29:44;;;;;;;22.20;17.70;;;17.00;99.90;;;;;;5034919;28;20092;-66
2023/06/20 01:32:16;;;;;;;28.40;18.83;;;17.00;99.90;;;;;;5052397;28;20541;-66
2023/06/20 01:34:49;;;;;;;25.52;19.40;;;17.00;99.90;;;;;;5018599;28;20052;-66
2023/06/20 01:37:17;;;;;;;26.08;19.40;;;17.00;99.90;;;;;;5035307;28;20371;-66
2023/06/20 01:39:51;;;;;;;24.15;19.85;;;17.00;99.90;;;;;;5044944;28;20047;-66
2023/06/20 01:42:22;;;;;;;25.88;19.88;;;17.00;99.90;;;;;;5034940;28;20124;-66
2023/06/20 01:44:51;;;;;;;29.65;20.50;;;17.00;99.90;;;;;;5035028;28;20041;-66
2023/06/20 01:47:19;;;;;;;27.90;20.45;;;17.00;99.90;;;;;;5017548;28;20489;-66
2023/06/20 01:49:48;;;;;;;23.92;18.70;;;17.00;99.90;;;;;;5045703;28;20065;-66
2023/06/20 01:52:16;;;;;;;27.80;18.98;;;17.00;99.90;;;;;;5053575;28;20401;-66
2023/06/20 01:54:46;;;;;;;30.17;19.63;;;17.00;99.90;;;;;;5033945;28;20037;-66
2023/06/20 01:57:15;;;;;;;24.30;18.80;;;17.00;99.90;;;;;;5035267;28;20044;-66
2023/06/20 01:59:42;;;;;;;29.52;19.75;;;17.00;99.90;;;;;;5044110;28;20052;-66
2023/06/20 02:02:08;;;;;;;25.38;20.52;;;17.00;99.90;;;;;;5052419;28;20041;-66
2023/06/20 02:04:35;;;;;;;29.10;20.08;;;17.00;99.90;;;;;;5052481;28;20094;-66
2023/06/20 02:07:03;;;;;;;24.63;20.52;;;17.00;99.90;;;;;;5033797;28;20145;-66
2023/06/20 02:09:30;;;;;;;28.80;20.60;;;17.00;99.90;;;;;;5034211;28;20040;-66
2023/06/20 02:11:56;;;;;;;25.70;19.17;;;17.00;99.90;;;;;;5052542;28;20048;-66
2023/06/20 02:14:24;;;;;;;25.38;19.55;;;17.00;99.90;;;;;;5017160;28;20052;-66
2023/06/20 02:16:50;;;;;;;25.30;19.08;;;17.00;99.90;;;;;;5017946;28;20045;-66
2023/06/20 02:19:16;;;;;;;24.00;18.70;;;17.00;99.90;;;;;;5052271;28;20041;-66
2023/06/20 02:21:45;;;;;;;23.55;19.50;;;17.10;99.90;;;;;;5033429;28;20033;-66
2023/06/20 02:24:13;;;;;;;21.75;18.88;;;17.10;99.90;;;;;;5034417;28;20123;-66
2023/06/20 02:26:43;;;;;;;24.20;17.38;;;17.10;99.90;;;;;;5035475;28;20052;-66
2023/06/20 02:29:16;;;;;;;25.52;18.27;;;17.20;99.90;;;;;;5070442;28;20102;-66
2023/06/20 02:31:50;;;;;;;22.20;16.52;;;17.20;99.90;;;;;;5047680;28;20055;-66
2023/06/20 02:34:20;;;;;;;22.10;16.10;;;17.20;99.90;;;;;;5051823;28;20452;-66
2023/06/20 02:36:47;;;;;;;20.15;15.07;;;17.30;99.90;;;;;;5051490;28;20296;-66
2023/06/20 02:39:13;;;;;;;22.23;15.15;;;17.20;99.90;;;;;;5033892;28;20094;-66
2023/06/20 02:41:42;;;;;;;19.25;15.10;;;17.30;99.90;;;;;;5033524;28;20051;-66
2023/06/20 02:44:08;;;;;;;20.40;13.48;;;17.30;99.90;;;;;;5034568;28;20041;-66
2023/06/20 02:46:56;;;;;;;20.63;14.60;;;17.30;99.90;;;;;;5051924;28;20505;-66
2023/06/20 02:50:07;;;;;;;17.27;13.00;;;17.30;99.90;;;;;;5042089;28;20061;-66
2023/06/20 02:52:44;;;;;;;14.73;11.63;;;17.30;99.90;;;;;;5030397;28;20061;-66
2023/06/20 02:55:17;;;;;;;14.98;11.82;;;17.40;99.90;;;;;;5034073;28;20509;-66
2023/06/20 02:57:54;;;;;;;17.42;12.07;;;17.40;99.90;;;;;;5032982;28;20569;-66
2023/06/20 03:00:21;;;;;;;14.95;11.02;;;17.40;99.90;;;;;;5033707;28;20033;-66
2023/06/20 03:03:06;;;;;;;16.40;11.32;;;17.40;99.90;;;;;;5016528;28;20056;-66
2023/06/20 03:05:36;;;;;;;13.30;10.32;;;17.40;99.90;;;;;;5033872;28;20494;-66
2023/06/20 03:08:03;;;;;;;15.85;11.13;;;17.40;99.90;;;;;;5054331;28;20047;-66
2023/06/20 03:10:31;;;;;;;14.60;10.60;;;17.40;99.90;;;;;;5055006;28;20040;-66
2023/06/20 03:12:57;;;;;;;14.82;10.18;;;17.40;99.90;;;;;;5037756;28;20102;-66
2023/06/20 03:15:23;;;;;;;12.43;10.05;;;17.40;99.90;;;;;;5037615;28;20052;-66
2023/06/20 03:17:49;;;;;;;13.23;9.07;;;17.40;99.90;;;;;;5037023;28;20033;-66
2023/06/20 03:20:15;;;;;;;15.30;10.38;;;17.40;99.90;;;;;;5053284;28;20047;-66
2023/06/20 03:22:40;;;;;;;13.77;10.07;;;17.40;99.90;;;;;;5055536;28;20116;-66
2023/06/20 03:25:06;;;;;;;14.35;10.35;;;17.40;99.90;;;;;;5055092;28;20040;-66
2023/06/20 03:27:32;;;;;;;12.52;9.65;;;17.40;99.90;;;;;;5037596;28;20033;-67
2023/06/20 03:30:03;;;;;;;13.23;9.75;;;17.40;99.90;;;;;;5054163;28;20551;-66
2023/06/20 03:32:29;;;;;;;16.33;8.82;;;17.40;99.90;;;;;;5056937;28;20043;-66
2023/06/20 03:34:55;;;;;;;11.20;8.32;;;17.40;99.90;;;;;;5057138;28;20044;-66
2023/06/20 03:37:21;;;;;;;10.93;7.22;;;17.40;99.90;;;;;;5075385;28;20033;-66
2023/06/20 03:39:46;;;;;;;12.02;8.50;;;17.40;99.90;;;;;;5074148;28;20040;-66
2023/06/20 03:42:12;;;;;;;10.80;7.72;;;17.40;99.90;;;;;;5057552;28;20461;-66
2023/06/20 03:44:38;;;;;;;11.75;8.57;;;17.40;99.90;;;;;;5057387;28;20097;-66
2023/06/20 03:47:04;;;;;;;12.38;7.82;;;17.40;99.90;;;;;;5056343;28;20036;-66
2023/06/20 03:49:29;;;;;;;12.73;7.90;;;17.40;99.90;;;;;;5074438;28;20044;-66
2023/06/20 03:51:55;;;;;;;10.98;7.78;;;17.40;99.90;;;;;;5073910;28;20044;-66
2023/06/20 03:54:21;;;;;;;9.90;7.18;;;17.50;99.90;;;;;;5056902;28;20044;-66
2023/06/20 03:56:47;;;;;;;12.27;7.20;;;17.50;99.90;;;;;;5056934;28;20124;-66
2023/06/20 03:59:14;;;;;;;11.93;7.65;;;17.50;99.90;;;;;;5046336;28;20473;-66
2023/06/20 04:01:40;;;;;;;12.57;8.02;;;17.50;99.90;;;;;;5054778;28;20052;-66
2023/06/20 04:04:06;;;;;;;12.95;8.02;;;17.50;99.90;;;;;;5037098;28;20077;-66
2023/06/20 04:06:31;;;;;;;15.40;8.55;;;17.50;99.90;;;;;;5035929;28;20079;-67
2023/06/20 04:08:58;;;;;;;12.80;9.00;;;17.50;99.90;;;;;;5054572;28;20091;-66
2023/06/20 04:11:24;;;;;;;14.15;8.90;;;17.60;99.90;;;;;;5020262;28;20512;-66
2023/06/20 04:13:49;;;;;;;13.82;9.35;;;17.60;99.90;;;;;;5035912;28;20494;-67
2023/06/20 04:16:15;;;;;;;14.27;9.68;;;17.60;99.90;;;;;;5054507;28;20098;-66
2023/06/20 04:18:41;;;;;;;14.05;8.85;;;17.60;99.90;;;;;;5053499;28;20108;-66
2023/06/20 04:21:07;;;;;;;18.02;10.00;;;17.60;99.90;;;;;;5053987;28;20048;-66
2023/06/20 04:23:33;;;;;;;12.15;8.35;;;17.60;99.90;;;;;;5053184;28;20053;-66
2023/06/20 04:25:58;;;;;;;13.73;9.48;;;17.60;99.90;;;;;;5036612;28;20044;-66
2023/06/20 04:28:24;;;;;;;12.55;8.77;;;17.70;99.90;;;;;;5031678;28;20061;-66
2023/06/20 04:30:52;;;;;;;13.70;9.25;;;17.70;99.90;;;;;;5033134;28;20098;-67
2023/06/20 04:33:19;;;;;;;18.63;9.07;;;17.70;99.90;;;;;;5032740;28;20042;-66
2023/06/20 04:35:45;;;;;;;12.38;8.52;;;17.70;99.90;;;;;;5031904;28;20116;-66
2023/06/20 04:38:10;;;;;;;12.52;9.13;;;17.70;99.90;;;;;;5033191;28;20167;-66
2023/06/20 04:40:36;;;;;;;12.35;9.20;;;17.80;99.90;;;;;;5032974;28;20033;-66
2023/06/20 04:43:03;;;;;;;14.70;9.63;;;17.80;99.90;;;;;;5033539;28;20045;-66
2023/06/20 04:45:30;;;;;;;13.25;8.95;;;17.80;99.90;;;;;;5034046;28;20046;-66
2023/06/20 04:47:56;;;;;;;11.93;8.18;;;17.80;99.90;;;;;;5033605;28;20045;-66
2023/06/20 04:50:22;;;;;;;13.80;9.07;;;17.80;99.90;;;;;;5033332;28;20077;-66
2023/06/20 04:52:48;;;;;;;13.65;9.20;;;17.90;99.90;;;;;;5040740;28;20115;-66
2023/06/20 04:55:14;;;;;;;12.02;8.60;;;17.90;99.90;;;;;;5032898;28;20423;-66
2023/06/20 04:57:40;;;;;;;12.50;9.05;;;17.90;99.90;;;;;;5033638;28;20040;-66
2023/06/20 05:00:12;;;;;;;16.35;9.68;;;18.00;99.90;;;;;;5016086;28;20041;-66
2023/06/20 05:02:42;;;;;;;12.93;9.18;;;18.00;99.90;;;;;;5032080;28;20123;-66
2023/06/20 05:05:09;;;;;;;13.20;8.40;;;18.00;99.90;;;;;;5032876;28;20053;-66
2023/06/20 05:07:35;;;;;;;13.25;8.23;;;18.00;99.90;;;;;;5032354;28;20046;-66
2023/06/20 05:10:00;;;;;;;12.93;9.30;;;18.00;99.90;;;;;;5032690;28;20045;-66
2023/06/20 05:12:26;;;;;;;11.60;8.95;;;18.00;99.90;;;;;;5033392;28;20188;-66
2023/06/20 05:14:52;;;;;;;12.20;8.63;;;18.10;99.90;;;;;;5033291;28;20045;-66
2023/06/20 05:17:17;;;;;;;12.98;9.85;;;18.10;99.90;;;;;;5047864;28;20080;-66
2023/06/20 05:19:43;;;;;;;12.60;9.48;;;18.20;99.90;;;;;;5048402;28;20041;-66
2023/06/20 05:22:09;;;;;;;16.33;9.85;;;18.10;99.90;;;;;;5015864;28;20037;-66
2023/06/20 05:24:34;;;;;;;13.90;9.95;;;18.10;99.90;;;;;;5031215;28;20091;-66
2023/06/20 05:27:00;;;;;;;11.85;9.38;;;18.20;99.90;;;;;;5032108;28;20053;-66
2023/06/20 05:29:26;;;;;;;14.32;10.00;;;18.20;99.90;;;;;;5045044;28;20562;-66
2023/06/20 05:31:51;;;;;;;16.88;10.20;;;18.20;99.90;;;;;;5054095;28;20052;-65
2023/06/20 05:34:17;;;;;;;17.80;10.45;;;18.20;99.90;;;;;;5055043;28;20067;-65
2023/06/20 05:36:43;;;;;;;13.63;9.82;;;18.20;99.90;;;;;;5055337;28;20040;-66
2023/06/20 05:39:09;;;;;;;13.88;9.32;;;18.30;99.90;;;;;;5045541;28;20397;-66
2023/06/20 05:41:35;;;;;;;12.90;9.48;;;18.30;99.90;;;;;;5047638;28;20073;-66
2023/06/20 05:44:02;;;;;;;15.07;10.43;;;18.30;99.90;;;;;;5055046;28;20044;-66
2023/06/20 05:46:27;;;;;;;15.45;9.70;;;18.40;99.90;;;;;;5050047;28;20505;-66
2023/06/20 05:48:53;;;;;;;14.43;10.23;;;18.40;99.90;;;;;;5018435;28;20051;-65
2023/06/20 05:51:18;;;;;;;13.80;9.45;;;18.40;99.90;;;;;;5018422;28;20048;-65
2023/06/20 05:53:44;;;;;;;14.20;10.05;;;18.40;99.90;;;;;;5051821;28;20053;-65
2023/06/20 05:56:10;;;;;;;12.27;9.27;;;18.40;99.90;;;;;;5035287;28;20397;-65
2023/06/20 05:58:36;;;;;;;15.43;10.32;;;18.50;99.90;;;;;;5051373;28;20040;-65
2023/06/20 06:01:05;;;;;;;15.00;10.10;;;18.50;99.90;;;;;;5052301;28;20037;-65
2023/06/20 06:03:34;;;;;;;12.88;9.40;;;18.50;99.90;;;;;;5052573;28;20045;-66
2023/06/20 06:06:00;;;;;;;15.63;9.63;;;18.50;99.90;;;;;;5033766;28;20052;-66
2023/06/20 06:08:26;;;;;;;12.48;8.98;;;18.60;99.90;;;;;;5053573;28;20048;-66
2023/06/20 06:10:52;;;;;;;14.43;10.02;;;18.70;99.90;;;;;;5043262;28;20044;-66
2023/06/20 06:13:18;;;;;;;13.57;9.25;;;18.70;99.90;;;;;;5041162;28;20044;-65
2023/06/20 06:15:43;;;;;;;14.00;9.07;;;18.70;99.90;;;;;;5033732;28;20445;-66
2023/06/20 06:18:09;;;;;;;13.35;10.45;;;18.80;99.90;;;;;;5034486;28;20044;-66
2023/06/20 06:20:35;;;;;;;16.92;10.52;;;18.80;99.90;;;;;;5052308;28;20040;-65
2023/06/20 06:23:01;;;;;;;13.60;10.65;;;18.90;99.90;;;;;;5051437;28;20558;-66
2023/06/20 06:25:27;;;;;;;13.52;9.00;;;18.90;99.90;;;;;;5050748;28;20040;-66
2023/06/20 06:27:52;;;;;;;12.80;10.00;;;19.00;99.90;;;;;;5050944;28;20402;-66
2023/06/20 06:30:18;;;;;;;12.98;10.25;;;19.10;99.90;;;;;;5034139;28;20124;-66
2023/06/20 06:32:47;;;;;;;13.30;9.50;;;19.20;99.90;;;;;;5034096;28;20072;-65
2023/06/20 06:35:14;;;;;;;14.32;9.23;;;19.20;99.90;;;;;;5033572;28;20048;-65
2023/06/20 06:37:40;;;;;;;12.80;8.65;;;19.20;99.90;;;;;;5050658;28;20098;-65
2023/06/20 06:40:09;;;;;;;14.45;9.27;;;19.30;99.90;;;;;;5054441;28;20033;-65
2023/06/20 06:42:35;;;;;;;15.25;8.88;;;19.30;99.90;;;;;;5053065;28;20505;-65
2023/06/20 06:45:01;;;;;;;12.20;8.70;;;19.40;99.90;;;;;;5071995;28;20044;-65
2023/06/20 06:47:26;;;;;;;11.10;8.57;;;19.50;99.90;;;;;;5054066;28;20052;-65
2023/06/20 06:49:52;;;;;;;12.57;8.95;;;19.50;99.90;;;;;;5053224;28;20048;-65
2023/06/20 06:52:18;;;;;;;13.48;8.20;;;19.60;99.90;;;;;;5054109;28;20044;-65
2023/06/20 06:54:43;;;;;;;11.55;8.13;;;19.60;99.90;;;;;;5053241;28;20398;-66
2023/06/20 06:57:09;;;;;;;12.27;9.65;;;19.70;99.90;;;;;;5071873;28;20488;-65
2023/06/20 06:59:35;;;;;;;14.07;8.95;;;19.80;99.90;;;;;;5053594;28;20499;-65
2023/06/20 07:02:00;;;;;;;11.35;8.80;;;19.80;99.90;;;;;;5071081;28;20097;-65
2023/06/20 07:04:26;;;;;;;13.98;9.05;;;19.90;99.90;;;;;;5054021;28;20076;-66
2023/06/20 07:06:51;;;;;;;10.70;8.88;;;19.90;99.90;;;;;;5071805;28;20044;-65
2023/06/20 07:09:17;;;;;;;12.43;9.95;;;20.00;99.90;;;;;;5070928;28;20052;-65
2023/06/20 07:11:43;;;;;;;13.20;9.82;;;20.00;99.90;;;;;;5053575;28;20068;-65
2023/06/20 07:14:08;;;;;;;11.85;9.57;;;20.10;99.90;;;;;;5053964;28;20041;-64
2023/06/20 07:16:34;;;;;;;17.02;9.70;;;20.20;99.90;;;;;;5053047;28;20036;-66
2023/06/20 07:19:00;;;;;;;11.02;8.68;;;20.30;99.90;;;;;;5071745;28;20175;-66
2023/06/20 07:21:26;;;;;;;12.85;9.68;;;20.40;99.90;;;;;;5041064;28;20451;-66
2023/06/20 07:23:52;;;;;;;12.80;9.60;;;20.40;99.90;;;;;;5047105;28;20371;-66
2023/06/20 07:26:18;;;;;;;12.85;9.95;;;20.60;99.90;;;;;;5043558;28;20055;-65
2023/06/20 07:28:43;;;;;;;12.25;10.60;;;20.60;99.90;;;;;;5060929;28;20517;-65
2023/06/20 07:31:16;;;;;;;13.32;9.48;;;20.60;99.90;;;;;;5014286;28;20478;-68
2023/06/20 07:33:43;;;;;;;14.57;11.17;;;20.70;99.90;;;;;;5046906;28;20045;-68
2023/06/20 07:36:08;;;;;;;18.08;10.85;;;20.70;99.90;;;;;;5050428;28;20271;-65
2023/06/20 07:38:34;;;;;;;12.95;9.48;;;20.80;99.90;;;;;;5031041;28;20090;-66
2023/06/20 07:41:00;;;;;;;11.57;8.88;;;20.80;99.90;;;;;;5031520;28;20124;-66
2023/06/20 07:43:25;;;;;;;14.00;9.93;;;20.90;99.90;;;;;;5033116;28;20375;-65
2023/06/20 07:45:51;;;;;;;14.85;10.82;;;20.90;99.90;;;;;;5024988;28;20498;-65
2023/06/20 07:48:17;;;;;;;12.85;9.60;;;21.00;99.90;;;;;;5040733;28;20049;-65
2023/06/20 07:50:43;;;;;;;16.55;10.23;;;21.00;99.90;;;;;;5044913;28;20497;-65
2023/06/20 07:53:09;;;;;;;13.30;10.65;;;21.00;99.90;;;;;;5051649;28;20412;-66
2023/06/20 07:55:34;;;;;;;14.75;11.48;;;21.00;99.90;;;;;;5072533;28;20086;-66
2023/06/20 07:58:00;;;;;;;13.18;10.93;;;21.00;99.90;;;;;;5069576;28;20111;-65
2023/06/20 08:00:27;;;;;;;15.85;11.20;;;21.00;99.90;;;;;;5071879;28;20051;-66
2023/06/20 08:02:53;;;;;;;13.00;10.80;;;21.10;99.90;;;;;;5053546;28;20041;-65
2023/06/20 08:05:19;;;;;;;14.45;11.90;;;21.00;99.90;;;;;;5071107;28;20565;-66
2023/06/20 08:07:44;;;;;;;15.02;11.45;;;21.00;99.90;;;;;;5072457;28;20036;-66
2023/06/20 08:10:10;;;;;;;12.57;10.20;;;21.00;99.90;;;;;;5071013;28;20086;-64
2023/06/20 08:12:39;;;;;;;14.02;10.65;;;21.10;99.90;;;;;;5043711;28;20040;-66
2023/06/20 08:15:05;;;;;;;13.15;11.18;;;21.10;99.90;;;;;;5034568;28;20128;-66
2023/06/20 08:17:32;;;;;;;15.23;11.88;;;21.10;99.90;;;;;;5050896;28;20091;-67
2023/06/20 08:19:59;;;;;;;13.55;10.75;;;21.20;99.90;;;;;;5057994;28;20452;-66
2023/06/20 08:22:26;;;;;;;16.75;12.02;;;21.30;99.90;;;;;;5044148;28;20037;-67
2023/06/20 08:24:51;;;;;;;13.10;11.05;;;21.30;99.90;;;;;;5051936;28;20037;-66
2023/06/20 08:27:17;;;;;;;13.15;11.70;;;21.40;99.90;;;;;;5066195;28;20044;-66
2023/06/20 08:29:43;;;;;;;19.70;11.77;;;21.40;99.90;;;;;;5071806;28;20057;-66
2023/06/20 08:32:08;;;;;;;13.10;11.00;;;21.40;99.90;;;;;;5054826;28;20055;-66
2023/06/20 08:34:34;;;;;;;13.82;11.27;;;21.40;99.90;;;;;;5042344;28;20488;-67
2023/06/20 08:37:00;;;;;;;14.05;10.65;;;21.50;99.90;;;;;;5065247;28;20090;-67
2023/06/20 08:39:26;;;;;;;13.07;10.60;;;21.50;99.90;;;;;;5056146;28;20036;-67
2023/06/20 08:41:52;;;;;;;14.52;12.27;;;21.60;99.90;;;;;;5036277;28;20041;-66
2023/06/20 08:44:18;;;;;;;13.75;11.68;;;21.60;99.90;;;;;;5071472;28;20040;-66
2023/06/20 08:46:45;;;;;;;13.57;11.55;;;21.70;99.90;;;;;;5052754;28;20036;-66
2023/06/20 08:49:14;;;;;;;13.40;10.48;;;21.90;99.90;;;;;;5071418;28;20119;-67
2023/06/20 08:51:43;;;;;;;14.68;12.50;;;22.00;99.90;;;;;;5036577;28;20114;-66
2023/06/20 08:54:13;;;;;;;22.60;12.70;;;22.10;99.90;;;;;;5053591;28;20512;-67
2023/06/20 08:56:39;;;;;;;17.33;11.98;;;22.20;99.90;;;;;;5071116;28;20033;-67
2023/06/20 08:59:05;;;;;;;15.25;12.30;;;22.30;99.90;;;;;;5071346;28;20059;-66
2023/06/20 09:01:35;;;;;;;14.15;11.93;;;22.50;99.90;;;;;;5061027;28;20060;-66
2023/06/20 09:04:02;;;;;;;15.57;11.65;;;22.50;99.90;;;;;;5052998;28;20105;-66
2023/06/20 09:06:37;;;;;;;13.95;11.73;;;22.60;99.90;;;;;;5053406;28;20056;-67
2023/06/20 09:09:13;;;;;;;13.05;10.82;;;22.70;99.90;;;;;;5051934;28;20085;-66
2023/06/20 09:11:39;;;;;;;14.27;11.40;;;22.80;99.90;;;;;;5048474;28;20055;-66
2023/06/20 09:14:05;;;;;;;11.98;10.45;;;22.90;99.90;;;;;;5045452;28;20041;-66
2023/06/20 09:16:31;;;;;;;16.45;12.52;;;23.00;99.90;;;;;;5055736;28;20089;-66
2023/06/20 09:19:01;;;;;;;16.60;11.93;;;23.20;99.90;;;;;;5051696;28;20049;-66
2023/06/20 09:21:27;;;;;;;12.88;11.02;;;23.30;99.90;;;;;;5045429;28;20048;-65
2023/06/20 09:24:04;;;;;;;13.30;10.13;;;23.50;99.90;;;;;;5034042;28;20535;-66
2023/06/20 09:26:31;;;;;;;14.32;10.32;;;23.70;99.90;;;;;;5035499;28;20048;-66
2023/06/20 09:29:14;;;;;;;12.15;10.07;;;23.80;99.90;;;;;;5052783;28;20053;-66
2023/06/20 09:31:49;;;;;;;12.98;9.85;;;24.00;99.90;;;;;;5034370;28;20098;-64
2023/06/20 09:34:19;;;;;;;12.27;10.52;;;24.20;99.90;;;;;;5037499;28;20081;-67
2023/06/20 09:36:48;;;;;;;11.13;8.93;;;24.40;99.90;;;;;;5019150;28;20029;-64
2023/06/20 09:39:20;;;;;;;11.10;8.80;;;24.50;99.90;;;;;;5035669;28;20393;-65
2023/06/20 09:41:49;;;;;;;10.00;8.50;;;24.70;99.90;;;;;;5034437;28;20131;-65
2023/06/20 09:44:17;;;;;;;10.80;9.35;;;24.80;99.90;;;;;;5026765;28;20127;-64
2023/06/20 09:46:43;;;;;;;10.18;8.20;;;24.90;99.90;;;;;;5056392;28;20047;-65
2023/06/20 09:49:11;;;;;;;13.50;10.13;;;24.90;99.90;;;;;;5056698;28;20099;-64
2023/06/20 09:51:53;;;;;;;13.65;9.43;;;24.90;99.90;;;;;;5051930;28;20048;-65
2023/06/20 09:54:35;;;;;;;12.70;9.57;;;24.80;99.90;;;;;;5062945;28;20054;-65
2023/06/20 09:57:08;;;;;;;12.07;10.85;;;24.70;99.90;;;;;;5046945;28;20070;-65
2023/06/20 09:59:38;;;;;;;11.48;9.63;;;24.70;99.90;;;;;;5042913;28;20518;-65
2023/06/20 10:02:07;;;;;;;11.93;9.05;;;24.70;99.90;;;;;;5052771;28;20547;-65
2023/06/20 10:04:39;;;;;;;13.20;9.20;;;24.70;99.90;;;;;;5053966;28;20091;-65
2023/06/20 10:07:05;;;;;;;10.55;8.00;;;24.90;99.90;;;;;;5046403;28;20075;-64
2023/06/20 10:09:31;;;;;;;10.63;8.55;;;25.00;99.90;;;;;;5054202;28;20083;-63
2023/06/20 10:11:57;;;;;;;11.82;8.25;;;25.00;99.90;;;;;;5071456;28;20076;-64
2023/06/20 10:14:24;;;;;;;10.07;8.80;;;25.00;99.90;;;;;;5062040;28;20505;-63
2023/06/20 10:16:52;;;;;;;10.77;9.43;;;25.00;99.90;;;;;;5055289;28;20047;-65
2023/06/20 10:19:19;;;;;;;10.73;9.00;;;25.10;99.90;;;;;;5053549;28;20123;-65
2023/06/20 10:21:59;;;;;;;10.23;8.48;;;25.30;99.90;;;;;;5054413;28;20047;-65
2023/06/20 10:24:30;;;;;;;12.45;9.50;;;25.40;99.90;;;;;;5031141;28;20047;-64
2023/06/20 10:27:03;;;;;;;15.48;8.82;;;25.40;99.90;;;;;;5065553;28;20079;-64
2023/06/20 10:29:28;;;;;;;9.68;8.68;;;25.50;99.90;;;;;;5072088;28;20048;-64
2023/06/20 10:32:03;;;;;;;10.85;9.43;;;25.50;99.90;;;;;;5071891;28;20047;-66
2023/06/20 10:34:39;;;;;;;10.23;8.98;;;25.60;99.90;;;;;;5040910;28;20044;-65
2023/06/20 10:37:28;;;;;;;10.80;8.93;;;25.50;99.90;;;;;;5044169;28;20036;-65
2023/06/20 10:39:58;;;;;;;10.93;8.35;;;25.60;99.90;;;;;;5045166;28;20053;-65
2023/06/20 10:42:42;;;;;;;11.25;7.93;;;25.70;99.90;;;;;;5042871;28;20035;-65
2023/06/20 10:45:17;;;;;;;9.95;7.90;;;25.80;99.90;;;;;;5092683;28;20040;-65
2023/06/20 10:47:44;;;;;;;10.13;7.90;;;25.90;99.90;;;;;;5072859;28;20079;-65
2023/06/20 10:50:16;;;;;;;10.52;8.38;;;26.00;99.90;;;;;;5074066;28;20054;-65
2023/06/20 10:52:41;;;;;;;10.88;8.27;;;26.10;99.90;;;;;;5092152;28;20385;-66
2023/06/20 10:55:14;;;;;;;10.27;7.32;;;26.20;99.90;;;;;;5054844;28;20055;-65
2023/06/20 10:57:47;;;;;;;8.68;7.47;;;26.30;99.90;;;;;;5036221;28;20507;-64
2023/06/20 11:00:21;;;;;;;9.50;7.73;;;26.50;99.90;;;;;;5064268;28;20037;-64
2023/06/20 11:02:50;;;;;;;12.13;7.05;;;26.70;99.90;;;;;;5055378;28;20333;-65
2023/06/20 11:05:17;;;;;;;7.32;5.82;;;26.80;99.90;;;;;;5053968;28;20041;-65
2023/06/20 11:08:08;;;;;;;7.75;5.95;;;26.90;99.90;;;;;;5037224;28;20044;-65
2023/06/20 11:10:37;;;;;;;7.55;5.93;;;27.20;99.90;;;;;;5024982;28;20086;-64
2023/06/20 11:13:05;;;;;;;8.50;5.60;;;27.20;99.90;;;;;;5035046;28;20486;-65
2023/06/20 11:15:35;;;;;;;7.68;5.93;;;27.30;99.90;;;;;;5049115;28;20124;-65
2023/06/20 11:18:04;;;;;;;7.65;5.43;;;27.20;99.90;;;;;;5050374;28;20040;-65
2023/06/20 11:20:35;;;;;;;6.95;5.05;;;27.30;99.90;;;;;;5031658;28;20041;-65
2023/06/20 11:23:05;;;;;;;6.68;5.13;;;27.40;99.80;;;;;;5048705;28;20052;-65
2023/06/20 11:25:33;;;;;;;7.57;5.55;;;27.40;99.20;;;;;;5047987;28;20074;-65
2023/06/20 11:28:13;;;;;;;7.00;4.88;;;27.50;98.70;;;;;;5032246;28;20525;-66
2023/06/20 11:30:45;;;;;;;6.30;4.75;;;27.60;98.40;;;;;;5032173;28;20033;-65
2023/06/20 11:33:15;;;;;;;7.63;5.88;;;27.50;97.20;;;;;;5032382;28;20045;-65
2023/06/20 11:35:54;;;;;;;9.23;5.68;;;27.50;97.20;;;;;;5030498;28;20401;-65
2023/06/20 11:38:20;;;;;;;9.00;5.20;;;27.50;97.40;;;;;;5031171;28;20037;-65
2023/06/20 11:40:51;;;;;;;9.23;5.40;;;27.50;96.50;;;;;;5032031;28;20554;-65
2023/06/20 11:43:25;;;;;;;7.28;5.88;;;27.50;96.90;;;;;;5031279;28;20431;-65
2023/06/20 11:45:51;;;;;;;9.18;6.10;;;27.60;97.20;;;;;;5031402;28;20465;-65
2023/06/20 11:48:18;;;;;;;7.60;6.13;;;27.50;97.00;;;;;;5044192;28;20076;-65
2023/06/20 11:50:53;;;;;;;7.95;5.85;;;27.50;97.70;;;;;;5047016;28;20124;-65
2023/06/20 11:53:25;;;;;;;8.95;6.30;;;27.60;98.10;;;;;;5033572;28;20082;-65
2023/06/20 11:55:53;;;;;;;7.85;5.38;;;27.70;97.80;;;;;;5051056;28;20552;-65
2023/06/20 11:58:19;;;;;;;8.98;5.88;;;27.70;97.10;;;;;;5030881;28;20125;-65
2023/06/20 12:00:47;;;;;;;9.40;5.88;;;27.70;97.30;;;;;;5035791;28;20120;-65
2023/06/20 12:03:18;;;;;;;7.32;5.85;;;27.80;97.30;;;;;;5031221;28;20053;-65
2023/06/20 12:05:44;;;;;;;8.63;6.03;;;27.90;97.70;;;;;;5031693;28;20045;-65
2023/06/20 12:08:10;;;;;;;7.35;6.10;;;28.10;97.40;;;;;;5046634;28;20464;-65
2023/06/20 12:10:40;;;;;;;7.78;5.85;;;28.10;96.90;;;;;;5050258;28;20120;-65
2023/06/20 12:13:06;;;;;;;8.18;6.18;;;28.20;97.00;;;;;;5050868;28;20036;-65
2023/06/20 12:15:31;;;;;;;6.75;5.43;;;28.20;96.40;;;;;;5047941;28;20441;-65
2023/06/20 12:17:57;;;;;;;7.35;5.75;;;28.20;96.30;;;;;;5034112;28;20065;-66
2023/06/20 12:20:23;;;;;;;7.70;5.53;;;28.10;96.10;;;;;;5041394;28;20028;-66
2023/06/20 12:22:49;;;;;;;6.95;4.88;;;28.00;96.20;;;;;;5051788;28;20086;-66
2023/06/20 12:25:14;;;;;;;6.45;5.30;;;28.10;96.40;;;;;;5052117;28;20092;-65
2023/06/20 12:27:40;;;;;;;6.22;4.90;;;28.20;95.40;;;;;;5054606;28;20044;-65
2023/06/20 12:30:08;;;;;;;7.18;4.88;;;28.20;95.00;;;;;;5052502;28;20053;-65
2023/06/20 12:32:33;;;;;;;7.45;6.07;;;28.30;94.50;;;;;;5031628;28;20090;-66
2023/06/20 12:34:59;;;;;;;7.10;5.93;;;28.50;94.20;;;;;;5067559;28;20044;-64
2023/06/20 12:37:25;;;;;;;11.07;6.10;;;28.60;94.10;;;;;;5055210;28;20041;-64
2023/06/20 12:39:53;;;;;;;8.43;5.78;;;28.60;93.80;;;;;;5048152;28;20063;-65